createdAt,value
2022-12-03T00:02:35.933Z,1017.4
2022-12-03T00:05:35.858Z,1017.4
2022-12-03T00:08:35.862Z,1017.5
2022-12-03T00:11:35.903Z,1017.4
2022-12-03T00:14:38.841Z,1017.3
2022-12-03T00:17:35.897Z,1017.4
2022-12-03T00:20:35.900Z,1017.3
2022-12-03T00:23:40.253Z,1017.3
2022-12-03T00:26:35.912Z,1017.4
2022-12-03T00:29:35.959Z,1017.3
2022-12-03T00:32:35.925Z,1017.4
2022-12-03T00:35:35.937Z,1017.4
2022-12-03T00:38:35.937Z,1017.3
2022-12-03T00:41:36.018Z,1017.4
2022-12-03T00:44:35.967Z,1017.4
2022-12-03T00:47:35.994Z,1017.3
2022-12-03T00:50:35.975Z,1017.4
2022-12-03T00:53:35.975Z,1017.3
2022-12-03T00:56:35.985Z,1017.3
2022-12-03T00:59:36.008Z,1017.3
2022-12-03T01:02:36.004Z,1017.3
2022-12-03T01:05:36.041Z,1017.4
2022-12-03T01:08:36.024Z,1017.4
2022-12-03T01:11:36.040Z,1017.4
2022-12-03T01:14:36.042Z,1017.3
2022-12-03T01:17:36.045Z,1017.4
2022-12-03T01:20:36.055Z,1017.4
2022-12-03T01:23:36.078Z,1017.4
2022-12-03T01:26:36.063Z,1017.4
2022-12-03T01:29:36.084Z,1017.4
2022-12-03T01:32:36.081Z,1017.3
2022-12-03T01:35:36.089Z,1017.2
2022-12-03T01:38:36.101Z,1017.2
2022-12-03T01:41:36.135Z,1017.2
2022-12-03T01:44:36.151Z,1017.2
2022-12-03T01:47:36.127Z,1017.2
2022-12-03T01:50:36.136Z,1017.2
2022-12-03T01:53:36.143Z,1017.4
2022-12-03T01:56:36.147Z,1017.5
2022-12-03T01:59:36.195Z,1017.4
2022-12-03T02:02:36.166Z,1017.4
2022-12-03T02:05:36.176Z,1017.4
2022-12-03T02:08:36.183Z,1017.4
2022-12-03T02:11:36.195Z,1017.4
2022-12-03T02:14:36.232Z,1017.4
2022-12-03T02:17:36.234Z,1017.4
2022-12-03T02:20:36.269Z,1017.3
2022-12-03T02:23:36.230Z,1017.4
2022-12-03T02:26:36.243Z,1017.4
2022-12-03T02:29:36.262Z,1017.4
2022-12-03T02:32:36.261Z,1017.4
2022-12-03T02:35:36.303Z,1017.4
2022-12-03T02:38:36.278Z,1017.4
2022-12-03T02:41:36.286Z,1017.4
2022-12-03T02:44:36.324Z,1017.5
2022-12-03T02:47:36.307Z,1017.4
2022-12-03T02:50:36.320Z,1017.5
2022-12-03T02:53:36.351Z,1017.4
2022-12-03T02:56:36.339Z,1017.4
2022-12-03T02:59:36.357Z,1017.4
2022-12-03T03:02:36.375Z,1017.3
2022-12-03T03:05:36.368Z,1017.4
2022-12-03T03:08:36.374Z,1017.4
2022-12-03T03:11:36.413Z,1017.4
2022-12-03T03:14:36.404Z,1017.3
2022-12-03T03:17:36.407Z,1017.4
2022-12-03T03:20:36.422Z,1017.4
2022-12-03T03:23:36.541Z,1017.4
2022-12-03T03:26:36.448Z,1017.4
2022-12-03T03:29:36.550Z,1017.4
2022-12-03T03:32:36.465Z,1017.3
2022-12-03T03:35:36.671Z,1017.3
2022-12-03T03:38:36.494Z,1017.3
2022-12-03T03:41:36.505Z,1017.3
2022-12-03T03:44:36.532Z,1017.2
2022-12-03T03:47:36.555Z,1017.3
2022-12-03T03:50:36.536Z,1017.2
2022-12-03T03:53:36.556Z,1017.1
2022-12-03T03:56:36.559Z,1017.2
2022-12-03T03:59:36.576Z,1017.3
2022-12-03T04:02:36.578Z,1017.2
2022-12-03T04:05:36.617Z,1017.3
2022-12-03T04:08:36.608Z,1017.2
2022-12-03T04:11:36.615Z,1017.2
2022-12-03T04:14:36.644Z,1017.1
2022-12-03T04:17:36.638Z,1017.2
2022-12-03T04:20:36.651Z,1017.1
2022-12-03T04:23:36.683Z,1017.1
2022-12-03T04:26:36.673Z,1017.2
2022-12-03T04:29:36.691Z,1017.1
2022-12-03T04:32:36.696Z,1017.1
2022-12-03T04:35:36.757Z,1017.2
2022-12-03T04:38:36.722Z,1017.1
2022-12-03T04:41:36.768Z,1017.1
2022-12-03T04:44:36.772Z,1017.2
2022-12-03T04:47:39.839Z,1017.2
2022-12-03T04:50:36.774Z,1017.2
2022-12-03T04:53:38.749Z,1017.1
2022-12-03T04:56:36.799Z,1017.1
2022-12-03T04:59:36.840Z,1017.2
2022-12-03T05:02:36.865Z,1017.1
2022-12-03T05:05:36.836Z,1017.1
2022-12-03T05:08:36.850Z,1017.1
2022-12-03T05:11:36.861Z,1017
2022-12-03T05:14:36.887Z,1017
2022-12-03T05:17:36.915Z,1017
2022-12-03T05:20:36.908Z,1016.9
2022-12-03T05:23:36.922Z,1016.9
2022-12-03T05:26:36.933Z,1016.9
2022-12-03T05:29:36.966Z,1016.9
2022-12-03T05:32:36.972Z,1016.9
2022-12-03T05:35:37.006Z,1016.9
2022-12-03T05:38:36.991Z,1016.8
2022-12-03T05:41:37.014Z,1016.9
2022-12-03T05:44:37.043Z,1017
2022-12-03T05:47:37.037Z,1016.9
2022-12-03T05:50:37.057Z,1017
2022-12-03T05:53:37.097Z,1016.9
2022-12-03T05:56:37.089Z,1017
2022-12-03T05:59:37.119Z,1016.9
2022-12-03T06:02:37.303Z,1016.9
2022-12-03T06:05:37.130Z,1016.9
2022-12-03T06:08:37.149Z,1016.8
2022-12-03T06:11:37.194Z,1016.8
2022-12-03T06:14:37.199Z,1016.8
2022-12-03T06:17:37.201Z,1016.8
2022-12-03T06:20:37.212Z,1016.9
2022-12-03T06:23:37.229Z,1016.9
2022-12-03T06:26:37.247Z,1016.9
2022-12-03T06:29:37.301Z,1016.8
2022-12-03T06:32:37.281Z,1016.8
2022-12-03T06:35:37.292Z,1016.9
2022-12-03T06:38:37.322Z,1016.7
2022-12-03T06:41:37.347Z,1016.7
2022-12-03T06:44:37.512Z,1016.9
2022-12-03T06:47:37.387Z,1016.8
2022-12-03T06:50:37.390Z,1016.8
2022-12-03T06:53:37.395Z,1016.8
2022-12-03T06:56:43.461Z,1016.8
2022-12-03T06:59:37.465Z,1016.8
2022-12-03T07:02:37.485Z,1016.8
2022-12-03T07:05:37.519Z,1016.8
2022-12-03T07:08:37.496Z,1016.7
2022-12-03T07:11:37.516Z,1016.7
2022-12-03T07:14:37.539Z,1016.8
2022-12-03T07:17:37.544Z,1016.7
2022-12-03T07:20:37.563Z,1016.7
2022-12-03T07:23:37.609Z,1016.7
2022-12-03T07:26:37.601Z,1016.6
2022-12-03T07:29:37.629Z,1016.6
2022-12-03T07:32:37.635Z,1016.6
2022-12-03T07:35:37.649Z,1016.6
2022-12-03T07:38:37.669Z,1016.6
2022-12-03T07:41:37.708Z,1016.6
2022-12-03T07:44:37.722Z,1016.5
2022-12-03T07:47:37.723Z,1016.5
2022-12-03T07:50:37.744Z,1016.5
2022-12-03T07:53:37.758Z,1016.5
2022-12-03T07:56:37.776Z,1016.4
2022-12-03T07:59:37.874Z,1016.4
2022-12-03T08:02:37.891Z,1016.5
2022-12-03T08:05:37.838Z,1016.5
2022-12-03T08:08:37.857Z,1016.5
2022-12-03T08:11:37.880Z,1016.5
2022-12-03T08:14:37.909Z,1016.5
2022-12-03T08:17:37.940Z,1016.5
2022-12-03T08:20:37.941Z,1016.4
2022-12-03T08:23:37.955Z,1016.4
2022-12-03T08:26:37.972Z,1016.4
2022-12-03T08:29:38.004Z,1016.4
2022-12-03T08:32:38.012Z,1016.4
2022-12-03T08:35:38.054Z,1016.4
2022-12-03T08:38:38.043Z,1016.4
2022-12-03T08:41:38.069Z,1016.4
2022-12-03T08:44:38.105Z,1016.4
2022-12-03T08:47:38.102Z,1016.3
2022-12-03T08:50:38.118Z,1016.3
2022-12-03T08:53:38.157Z,1016.3
2022-12-03T08:56:38.153Z,1016.3
2022-12-03T08:59:40.273Z,1016.4
2022-12-03T09:02:38.191Z,1016.2
2022-12-03T09:05:38.207Z,1016.3
2022-12-03T09:08:38.220Z,1016.2
2022-12-03T09:11:38.262Z,1016.1
2022-12-03T09:14:38.272Z,1016.2
2022-12-03T09:17:38.264Z,1016.2
2022-12-03T09:20:38.277Z,1016.2
2022-12-03T09:23:38.290Z,1016.2
2022-12-03T09:26:38.305Z,1016.3
2022-12-03T09:29:38.362Z,1016.3
2022-12-03T09:32:38.335Z,1016.3
2022-12-03T09:35:38.347Z,1016.3
2022-12-03T09:38:40.834Z,1016.3
2022-12-03T09:41:38.374Z,1016.3
2022-12-03T09:44:38.411Z,1016.3
2022-12-03T09:47:38.452Z,1016.3
2022-12-03T09:50:38.416Z,1016.2
2022-12-03T09:53:41.291Z,1016.2
2022-12-03T09:56:38.440Z,1016.1
2022-12-03T09:59:38.468Z,1016.2
2022-12-03T10:02:38.470Z,1016.1
2022-12-03T10:05:39.223Z,1016
2022-12-03T10:08:38.499Z,1016
2022-12-03T10:11:38.510Z,1016
2022-12-03T10:14:38.539Z,1016
2022-12-03T10:17:38.533Z,1015.9
2022-12-03T10:20:38.545Z,1015.9
2022-12-03T10:23:38.583Z,1015.9
2022-12-03T10:26:38.573Z,1015.9
2022-12-03T10:29:38.598Z,1015.8
2022-12-03T10:32:38.603Z,1015.8
2022-12-03T10:35:38.618Z,1015.6
2022-12-03T10:38:38.628Z,1015.6
2022-12-03T10:41:38.664Z,1015.5
2022-12-03T10:44:38.744Z,1015.5
2022-12-03T10:47:38.782Z,1015.5
2022-12-03T10:50:38.685Z,1015.6
2022-12-03T10:53:38.701Z,1015.6
2022-12-03T10:56:38.709Z,1015.6
2022-12-03T10:59:38.755Z,1015.6
2022-12-03T11:02:38.736Z,1015.6
2022-12-03T11:05:38.748Z,1015.6
2022-12-03T11:08:38.765Z,1015.6
2022-12-03T11:11:38.778Z,1015.6
2022-12-03T11:14:38.798Z,1015.5
2022-12-03T11:17:38.820Z,1015.5
2022-12-03T11:20:38.816Z,1015.5
2022-12-03T11:23:38.841Z,1015.5
2022-12-03T11:26:38.845Z,1015.4
2022-12-03T11:29:38.865Z,1015.4
2022-12-03T11:32:38.879Z,1015.3
2022-12-03T11:35:38.903Z,1015.3
2022-12-03T11:38:38.892Z,1015.3
2022-12-03T11:41:38.905Z,1015.3
2022-12-03T11:44:38.926Z,1015.2
2022-12-03T11:47:38.935Z,1015.3
2022-12-03T11:50:40.275Z,1015.3
2022-12-03T11:53:38.977Z,1015.3
2022-12-03T11:56:38.973Z,1015.3
2022-12-03T11:59:38.996Z,1015.2
2022-12-03T12:02:39.067Z,1015.3
2022-12-03T12:05:39.008Z,1015.2
2022-12-03T12:08:39.021Z,1015.2
2022-12-03T12:11:39.057Z,1015.2
2022-12-03T12:14:39.059Z,1015.2
2022-12-03T12:17:39.064Z,1015.1
2022-12-03T12:20:39.074Z,1015.1
2022-12-03T12:23:39.089Z,1015.1
2022-12-03T12:26:39.104Z,1015
2022-12-03T12:29:39.150Z,1015.1
2022-12-03T12:32:39.141Z,1015
2022-12-03T12:35:39.145Z,1015
2022-12-03T12:38:39.150Z,1014.9
2022-12-03T12:41:39.166Z,1014.9
2022-12-03T12:44:39.190Z,1014.9
2022-12-03T12:47:39.247Z,1014.9
2022-12-03T12:50:39.194Z,1014.9
2022-12-03T12:53:39.212Z,1015
2022-12-03T12:56:39.224Z,1014.9
2022-12-03T12:59:39.267Z,1014.9
2022-12-03T13:02:39.293Z,1014.9
2022-12-03T13:05:39.284Z,1014.8
2022-12-03T13:08:39.275Z,1014.8
2022-12-03T13:11:39.356Z,1014.8
2022-12-03T13:14:39.355Z,1014.7
2022-12-03T13:17:39.326Z,1014.6
2022-12-03T13:20:39.329Z,1014.7
2022-12-03T13:23:39.372Z,1014.7
2022-12-03T13:26:39.582Z,1014.7
2022-12-03T13:29:39.383Z,1014.6
2022-12-03T13:32:39.389Z,1014.6
2022-12-03T13:35:39.397Z,1014.6
2022-12-03T13:38:39.409Z,1014.6
2022-12-03T13:41:39.450Z,1014.5
2022-12-03T13:44:39.445Z,1014.5
2022-12-03T13:47:39.450Z,1014.5
2022-12-03T13:50:39.467Z,1014.5
2022-12-03T13:53:39.477Z,1014.5
2022-12-03T13:56:39.491Z,1014.4
2022-12-03T13:59:39.538Z,1014.4
2022-12-03T14:02:39.552Z,1014.4
2022-12-03T14:05:39.524Z,1014.4
2022-12-03T14:08:39.542Z,1014.5
2022-12-03T14:11:39.552Z,1014.5
2022-12-03T14:14:39.572Z,1014.5
2022-12-03T14:17:39.595Z,1014.5
2022-12-03T14:20:39.584Z,1014.4
2022-12-03T14:23:39.593Z,1014.4
2022-12-03T14:26:39.690Z,1014.3
2022-12-03T14:29:39.633Z,1014.3
2022-12-03T14:32:39.633Z,1014.3
2022-12-03T14:35:39.663Z,1014.3
2022-12-03T14:38:39.645Z,1014.2
2022-12-03T14:41:39.659Z,1014.2
2022-12-03T14:44:39.680Z,1014.2
2022-12-03T14:47:39.680Z,1014.2
2022-12-03T14:50:39.688Z,1014.3
2022-12-03T14:53:39.723Z,1014.3
2022-12-03T14:56:39.723Z,1014.1
2022-12-03T14:59:39.740Z,1014.1
2022-12-03T15:02:39.808Z,1014.1
2022-12-03T15:05:39.743Z,1014.3
2022-12-03T15:08:39.745Z,1014.3
2022-12-03T15:11:44.605Z,1014.4
2022-12-03T15:14:39.783Z,1014.2
2022-12-03T15:17:39.788Z,1014.2
2022-12-03T15:20:39.789Z,1014.2
2022-12-03T15:23:39.800Z,1014.2
2022-12-03T15:26:39.904Z,1014.1
2022-12-03T15:29:39.893Z,1014.2
2022-12-03T15:32:39.820Z,1014.1
2022-12-03T15:35:39.830Z,1014.1
2022-12-03T15:38:39.840Z,1014.1
2022-12-03T15:41:39.847Z,1014.1
2022-12-03T15:44:39.870Z,1014.2
2022-12-03T15:47:39.892Z,1014.1
2022-12-03T15:50:40.476Z,1014.2
2022-12-03T15:53:39.896Z,1014.2
2022-12-03T15:56:39.893Z,1014.3
2022-12-03T15:59:39.906Z,1014.3
2022-12-03T16:02:39.961Z,1014.3
2022-12-03T16:05:39.931Z,1014.3
2022-12-03T16:08:39.922Z,1014.3
2022-12-03T16:11:39.923Z,1014.3
2022-12-03T16:14:39.942Z,1014.3
2022-12-03T16:17:39.940Z,1014.4
2022-12-03T16:20:39.950Z,1014.4
2022-12-03T16:23:39.979Z,1014.3
2022-12-03T16:26:39.968Z,1014.1
2022-12-03T16:29:39.979Z,1014.2
2022-12-03T16:32:39.974Z,1014.2
2022-12-03T16:35:39.980Z,1014.2
2022-12-03T16:38:39.989Z,1014.1
2022-12-03T16:41:40.023Z,1014.1
2022-12-03T16:44:40.017Z,1014.1
2022-12-03T16:47:40.013Z,1014.2
2022-12-03T16:50:40.021Z,1014.2
2022-12-03T16:53:40.029Z,1014.2
2022-12-03T16:56:40.034Z,1014.3
2022-12-03T16:59:40.073Z,1014.3
2022-12-03T17:02:40.106Z,1014.3
2022-12-03T17:05:40.047Z,1014.3
2022-12-03T17:08:43.157Z,1014.3
2022-12-03T17:11:40.062Z,1014.3
2022-12-03T17:14:40.076Z,1014.3
2022-12-03T17:17:40.098Z,1014.3
2022-12-03T17:20:40.077Z,1014.3
2022-12-03T17:23:40.077Z,1014.3
2022-12-03T17:26:40.084Z,1014.3
2022-12-03T17:29:40.097Z,1014.3
2022-12-03T17:32:40.110Z,1014.2
2022-12-03T17:35:40.112Z,1014.3
2022-12-03T17:38:40.094Z,1014.2
2022-12-03T17:41:40.099Z,1014.3
2022-12-03T17:44:40.107Z,1014
2022-12-03T17:47:40.100Z,1014.1
2022-12-03T17:50:40.108Z,1014.1
2022-12-03T17:53:40.133Z,1014.1
2022-12-03T17:56:40.116Z,1014.1
2022-12-03T17:59:40.145Z,1014.1
2022-12-03T18:02:40.141Z,1014.2
2022-12-03T18:05:40.163Z,1014.2
2022-12-03T18:08:40.172Z,1014.1
2022-12-03T18:11:40.217Z,1014
2022-12-03T18:14:40.218Z,1014
2022-12-03T18:17:40.231Z,1014
2022-12-03T18:20:40.245Z,1014.1
2022-12-03T18:23:40.268Z,1014.1
2022-12-03T18:26:40.293Z,1014.1
2022-12-03T18:29:40.348Z,1014
2022-12-03T18:32:40.321Z,1014
2022-12-03T18:35:40.358Z,1014
2022-12-03T18:38:40.365Z,1014
2022-12-03T18:41:40.386Z,1014
2022-12-03T18:44:43.760Z,1014
2022-12-03T18:47:40.522Z,1014
2022-12-03T18:50:40.422Z,1013.8
2022-12-03T18:53:40.440Z,1013.8
2022-12-03T18:56:40.441Z,1013.8
2022-12-03T18:59:40.471Z,1013.8
2022-12-03T19:03:06.291Z,1013.9
2022-12-03T19:05:40.517Z,1013.8
2022-12-03T19:08:40.550Z,1013.8
2022-12-03T19:11:40.513Z,1013.8
2022-12-03T19:14:40.529Z,1013.9
2022-12-03T19:17:40.525Z,1013.9
2022-12-03T19:20:40.544Z,1013.9
2022-12-03T19:23:40.551Z,1013.9
2022-12-03T19:26:40.534Z,1013.9
2022-12-03T19:29:40.543Z,1013.9
2022-12-03T19:32:40.539Z,1013.9
2022-12-03T19:35:40.540Z,1013.9
2022-12-03T19:38:40.545Z,1013.9
2022-12-03T19:41:40.570Z,1013.9
2022-12-03T19:44:40.560Z,1013.9
2022-12-03T19:47:40.553Z,1014
2022-12-03T19:50:40.561Z,1013.9
2022-12-03T19:53:40.568Z,1013.9
2022-12-03T19:56:40.568Z,1014
2022-12-03T19:59:40.604Z,1013.9
2022-12-03T20:02:40.643Z,1014
2022-12-03T20:05:40.574Z,1013.8
2022-12-03T20:08:40.577Z,1014
2022-12-03T20:11:40.580Z,1014
2022-12-03T20:14:40.600Z,1013.9
2022-12-03T20:17:40.617Z,1014
2022-12-03T20:20:40.592Z,1013.9
2022-12-03T20:23:40.596Z,1013.9
2022-12-03T20:26:40.600Z,1013.9
2022-12-03T20:29:40.615Z,1013.9
2022-12-03T20:32:44.994Z,1013.9
2022-12-03T20:35:40.637Z,1013.9
2022-12-03T20:38:40.623Z,1013.9
2022-12-03T20:41:40.623Z,1013.8
2022-12-03T20:44:40.634Z,1013.8
2022-12-03T20:47:40.629Z,1013.8
2022-12-03T20:50:40.642Z,1013.7
2022-12-03T20:53:40.661Z,1013.8
2022-12-03T20:56:40.637Z,1013.7
2022-12-03T20:59:40.652Z,1013.7
2022-12-03T21:02:40.709Z,1013.8
2022-12-03T21:05:40.646Z,1013.8
2022-12-03T21:08:42.103Z,1013.8
2022-12-03T21:11:40.682Z,1013.8
2022-12-03T21:14:40.662Z,1013.7
2022-12-03T21:17:40.727Z,1013.8
2022-12-03T21:20:40.657Z,1013.8
2022-12-03T21:23:40.661Z,1013.8
2022-12-03T21:26:40.660Z,1013.8
2022-12-03T21:29:40.693Z,1013.7
2022-12-03T21:32:40.660Z,1013.7
2022-12-03T21:35:40.666Z,1013.7
2022-12-03T21:38:40.675Z,1013.7
2022-12-03T21:41:40.687Z,1013.7
2022-12-03T21:44:40.709Z,1013.7
2022-12-03T21:47:40.829Z,1013.7
2022-12-03T21:50:40.727Z,1013.7
2022-12-03T21:53:43.541Z,1013.7
2022-12-03T21:56:40.749Z,1013.7
2022-12-03T21:59:40.771Z,1013.8
2022-12-03T22:02:40.850Z,1013.7
2022-12-03T22:05:40.813Z,1013.7
2022-12-03T22:08:40.801Z,1013.6
2022-12-03T22:11:40.816Z,1013.6
2022-12-03T22:14:40.837Z,1013.7
2022-12-03T22:17:40.841Z,1013.7
2022-12-03T22:20:40.855Z,1013.7
2022-12-03T22:23:40.891Z,1013.7
2022-12-03T22:26:40.881Z,1013.7
2022-12-03T22:29:40.904Z,1013.6
2022-12-03T22:32:40.919Z,1013.6
2022-12-03T22:35:40.922Z,1013.6
2022-12-03T22:38:40.937Z,1013.6
2022-12-03T22:41:40.964Z,1013.6
2022-12-03T22:44:40.970Z,1013.6
2022-12-03T22:47:40.974Z,1013.6
2022-12-03T22:50:40.989Z,1013.6
2022-12-03T22:53:41.005Z,1013.6
2022-12-03T22:56:41.015Z,1013.5
2022-12-03T22:59:41.068Z,1013.5
2022-12-03T23:02:41.091Z,1013.5
2022-12-03T23:05:41.063Z,1013.4
2022-12-03T23:08:41.076Z,1013.4
2022-12-03T23:11:41.087Z,1013.3
2022-12-03T23:14:41.120Z,1013.3
2022-12-03T23:17:41.145Z,1013.3
2022-12-03T23:20:41.144Z,1013.3
2022-12-03T23:23:41.152Z,1013.4
2022-12-03T23:26:41.276Z,1013.3
2022-12-03T23:29:41.195Z,1013.3
2022-12-03T23:32:41.210Z,1013.3
2022-12-03T23:35:41.242Z,1013.3
2022-12-03T23:38:41.233Z,1013.3
2022-12-03T23:41:41.250Z,1013.3
2022-12-03T23:44:41.284Z,1013.3
2022-12-03T23:47:41.288Z,1013.3
2022-12-03T23:50:41.368Z,1013.2
2022-12-03T23:53:41.342Z,1013.3
2022-12-03T23:56:41.336Z,1013.2
2022-12-03T23:59:41.368Z,1013.1
